sensor_id;sensor_type;location;lat;lon;timestamp;temperature;humidity
11538;DHT22;50159;49.426;11.182;2023-07-31T00:00:00;13.70;99.90
11538;DHT22;50159;49.426;11.182;2023-07-31T00:02:27;13.70;99.90
11538;DHT22;50159;49.426;11.182;2023-07-31T00:04:54;13.70;99.90
11538;DHT22;50159;49.426;11.182;2023-07-31T00:07:21;13.70;99.90
11538;DHT22;50159;49.426;11.182;2023-07-31T00:09:48;13.70;99.90
11538;DHT22;50159;49.426;11.182;2023-07-31T00:12:15;13.70;99.90
11538;DHT22;50159;49.426;11.182;2023-07-31T00:14:42;13.60;99.90
11538;DHT22;50159;49.426;11.182;2023-07-31T00:17:08;13.60;99.90
11538;DHT22;50159;49.426;11.182;2023-07-31T00:19:35;13.60;99.90
11538;DHT22;50159;49.426;11.182;2023-07-31T00:22:02;13.60;99.90
11538;DHT22;50159;49.426;11.182;2023-07-31T00:24:29;13.60;99.90
11538;DHT22;50159;49.426;11.182;2023-07-31T00:26:56;13.60;99.90
11538;DHT22;50159;49.426;11.182;2023-07-31T00:29:23;13.60;99.90
11538;DHT22;50159;49.426;11.182;2023-07-31T00:31:50;13.50;99.90
11538;DHT22;50159;49.426;11.182;2023-07-31T00:34:17;13.50;99.90
11538;DHT22;50159;49.426;11.182;2023-07-31T00:36:43;13.50;99.90
11538;DHT22;50159;49.426;11.182;2023-07-31T00:39:10;13.50;99.90
11538;DHT22;50159;49.426;11.182;2023-07-31T00:41:37;13.50;99.90
11538;DHT22;50159;49.426;11.182;2023-07-31T00:44:04;13.50;99.90
11538;DHT22;50159;49.426;11.182;2023-07-31T00:46:30;13.50;99.90
11538;DHT22;50159;49.426;11.182;2023-07-31T00:48:57;13.50;99.90
11538;DHT22;50159;49.426;11.182;2023-07-31T00:51:25;13.50;99.90
11538;DHT22;50159;49.426;11.182;2023-07-31T00:53:53;13.40;99.90
11538;DHT22;50159;49.426;11.182;2023-07-31T00:56:20;13.40;99.90
11538;DHT22;50159;49.426;11.182;2023-07-31T00:58:48;13.40;99.90
11538;DHT22;50159;49.426;11.182;2023-07-31T01:01:15;13.40;99.90
11538;DHT22;50159;49.426;11.182;2023-07-31T01:03:42;13.40;99.90
11538;DHT22;50159;49.426;11.182;2023-07-31T01:06:18;13.40;99.90
11538;DHT22;50159;49.426;11.182;2023-07-31T01:12:01;13.40;99.90
11538;DHT22;50159;49.426;11.182;2023-07-31T01:14:29;13.40;99.90
11538;DHT22;50159;49.426;11.182;2023-07-31T01:16:56;13.40;99.90
11538;DHT22;50159;49.426;11.182;2023-07-31T01:19:24;13.40;99.90
11538;DHT22;50159;49.426;11.182;2023-07-31T01:25:16;13.50;99.90
11538;DHT22;50159;49.426;11.182;2023-07-31T01:28:02;13.50;99.90
11538;DHT22;50159;49.426;11.182;2023-07-31T01:30:33;13.50;99.90
11538;DHT22;50159;49.426;11.182;2023-07-31T01:33:04;13.60;99.90
11538;DHT22;50159;49.426;11.182;2023-07-31T01:35:34;13.60;99.90
11538;DHT22;50159;49.426;11.182;2023-07-31T01:38:02;13.60;99.90
11538;DHT22;50159;49.426;11.182;2023-07-31T01:40:29;13.60;99.90
11538;DHT22;50159;49.426;11.182;2023-07-31T01:42:56;13.70;99.90
11538;DHT22;50159;49.426;11.182;2023-07-31T01:45:23;14.20;99.90
11538;DHT22;50159;49.426;11.182;2023-07-31T01:47:50;13.70;99.90
11538;DHT22;50159;49.426;11.182;2023-07-31T01:50:17;13.80;99.90
11538;DHT22;50159;49.426;11.182;2023-07-31T01:52:43;13.80;99.90
11538;DHT22;50159;49.426;11.182;2023-07-31T01:55:10;13.80;99.90
11538;DHT22;50159;49.426;11.182;2023-07-31T01:57:37;13.80;99.90
11538;DHT22;50159;49.426;11.182;2023-07-31T02:00:04;13.90;99.90
11538;DHT22;50159;49.426;11.182;2023-07-31T02:02:32;13.90;99.90
11538;DHT22;50159;49.426;11.182;2023-07-31T02:04:59;14.00;99.90
11538;DHT22;50159;49.426;11.182;2023-07-31T02:07:26;14.00;99.90
11538;DHT22;50159;49.426;11.182;2023-07-31T02:09:53;14.00;99.90
11538;DHT22;50159;49.426;11.182;2023-07-31T02:12:20;14.10;99.90
11538;DHT22;50159;49.426;11.182;2023-07-31T02:14:47;14.10;99.90
11538;DHT22;50159;49.426;11.182;2023-07-31T02:17:13;14.10;99.90
11538;DHT22;50159;49.426;11.182;2023-07-31T02:19:40;14.10;99.90
11538;DHT22;50159;49.426;11.182;2023-07-31T02:22:07;14.10;99.90
11538;DHT22;50159;49.426;11.182;2023-07-31T02:24:34;14.20;99.90
11538;DHT22;50159;49.426;11.182;2023-07-31T02:27:01;14.20;99.90
11538;DHT22;50159;49.426;11.182;2023-07-31T02:29:27;14.20;99.90
11538;DHT22;50159;49.426;11.182;2023-07-31T02:31:54;14.20;99.90
11538;DHT22;50159;49.426;11.182;2023-07-31T02:34:21;14.20;99.90
11538;DHT22;50159;49.426;11.182;2023-07-31T02:36:48;14.20;99.90
11538;DHT22;50159;49.426;11.182;2023-07-31T02:39:15;14.30;99.90
11538;DHT22;50159;49.426;11.182;2023-07-31T02:41:41;14.30;99.90
11538;DHT22;50159;49.426;11.182;2023-07-31T02:44:08;14.40;99.90
11538;DHT22;50159;49.426;11.182;2023-07-31T02:46:36;14.30;99.90
11538;DHT22;50159;49.426;11.182;2023-07-31T02:49:04;14.30;99.90
11538;DHT22;50159;49.426;11.182;2023-07-31T02:51:31;14.40;99.90
11538;DHT22;50159;49.426;11.182;2023-07-31T02:53:57;14.40;99.90
11538;DHT22;50159;49.426;11.182;2023-07-31T02:56:24;14.40;99.90
11538;DHT22;50159;49.426;11.182;2023-07-31T02:58:51;14.40;99.90
11538;DHT22;50159;49.426;11.182;2023-07-31T03:01:18;14.40;99.90
11538;DHT22;50159;49.426;11.182;2023-07-31T03:03:45;14.40;99.90
11538;DHT22;50159;49.426;11.182;2023-07-31T03:06:11;14.40;99.90
11538;DHT22;50159;49.426;11.182;2023-07-31T03:08:38;14.40;99.90
11538;DHT22;50159;49.426;11.182;2023-07-31T03:11:05;14.40;99.90
11538;DHT22;50159;49.426;11.182;2023-07-31T03:13:32;14.50;99.90
11538;DHT22;50159;49.426;11.182;2023-07-31T03:15:59;14.40;99.90
11538;DHT22;50159;49.426;11.182;2023-07-31T03:18:25;14.40;99.90
11538;DHT22;50159;49.426;11.182;2023-07-31T03:20:52;14.40;99.90
11538;DHT22;50159;49.426;11.182;2023-07-31T03:23:19;14.40;99.90
11538;DHT22;50159;49.426;11.182;2023-07-31T03:26:07;14.40;99.90
11538;DHT22;50159;49.426;11.182;2023-07-31T03:28:34;14.30;99.90
11538;DHT22;50159;49.426;11.182;2023-07-31T03:31:01;14.30;99.90
11538;DHT22;50159;49.426;11.182;2023-07-31T03:33:28;14.30;99.90
11538;DHT22;50159;49.426;11.182;2023-07-31T03:35:55;14.40;99.90
11538;DHT22;50159;49.426;11.182;2023-07-31T03:38:22;14.40;99.90
11538;DHT22;50159;49.426;11.182;2023-07-31T03:40:49;14.40;99.90
11538;DHT22;50159;49.426;11.182;2023-07-31T03:43:15;14.40;99.90
11538;DHT22;50159;49.426;11.182;2023-07-31T03:45:42;14.40;99.90
11538;DHT22;50159;49.426;11.182;2023-07-31T03:48:09;14.40;99.90
11538;DHT22;50159;49.426;11.182;2023-07-31T03:50:36;14.40;99.90
11538;DHT22;50159;49.426;11.182;2023-07-31T03:53:03;14.40;99.90
11538;DHT22;50159;49.426;11.182;2023-07-31T03:55:30;14.40;99.90
11538;DHT22;50159;49.426;11.182;2023-07-31T03:57:56;14.40;99.90
11538;DHT22;50159;49.426;11.182;2023-07-31T04:00:26;14.40;99.90
11538;DHT22;50159;49.426;11.182;2023-07-31T04:02:53;14.40;99.90
11538;DHT22;50159;49.426;11.182;2023-07-31T04:05:20;14.40;99.90
11538;DHT22;50159;49.426;11.182;2023-07-31T04:07:47;14.40;99.90
11538;DHT22;50159;49.426;11.182;2023-07-31T04:10:14;14.40;99.90
11538;DHT22;50159;49.426;11.182;2023-07-31T04:12:41;14.40;99.90
11538;DHT22;50159;49.426;11.182;2023-07-31T04:15:08;14.40;99.90
11538;DHT22;50159;49.426;11.182;2023-07-31T04:17:36;14.40;99.90
11538;DHT22;50159;49.426;11.182;2023-07-31T04:20:04;14.50;99.90
11538;DHT22;50159;49.426;11.182;2023-07-31T04:22:31;14.50;99.90
11538;DHT22;50159;49.426;11.182;2023-07-31T04:24:58;14.50;99.90
11538;DHT22;50159;49.426;11.182;2023-07-31T04:27:25;14.50;99.90
11538;DHT22;50159;49.426;11.182;2023-07-31T04:29:52;14.60;99.90
11538;DHT22;50159;49.426;11.182;2023-07-31T04:32:19;14.60;99.90
11538;DHT22;50159;49.426;11.182;2023-07-31T04:34:47;14.60;99.90
11538;DHT22;50159;49.426;11.182;2023-07-31T04:37:14;14.60;99.90
11538;DHT22;50159;49.426;11.182;2023-07-31T04:39:41;14.70;99.90
11538;DHT22;50159;49.426;11.182;2023-07-31T04:42:07;14.70;99.90
11538;DHT22;50159;49.426;11.182;2023-07-31T04:44:35;14.70;99.90
11538;DHT22;50159;49.426;11.182;2023-07-31T04:47:02;14.70;99.90
11538;DHT22;50159;49.426;11.182;2023-07-31T04:49:30;14.70;99.90
11538;DHT22;50159;49.426;11.182;2023-07-31T04:51:57;14.80;99.90
11538;DHT22;50159;49.426;11.182;2023-07-31T04:54:24;14.80;99.90
11538;DHT22;50159;49.426;11.182;2023-07-31T04:56:53;14.90;99.90
11538;DHT22;50159;49.426;11.182;2023-07-31T04:59:20;14.90;99.90
11538;DHT22;50159;49.426;11.182;2023-07-31T05:01:47;14.90;99.90
11538;DHT22;50159;49.426;11.182;2023-07-31T05:04:14;15.00;99.90
11538;DHT22;50159;49.426;11.182;2023-07-31T05:06:41;15.00;99.90
11538;DHT22;50159;49.426;11.182;2023-07-31T05:09:08;15.00;99.90
11538;DHT22;50159;49.426;11.182;2023-07-31T05:11:38;15.10;99.90
11538;DHT22;50159;49.426;11.182;2023-07-31T05:14:06;15.10;99.90
11538;DHT22;50159;49.426;11.182;2023-07-31T05:16:34;15.10;99.90
11538;DHT22;50159;49.426;11.182;2023-07-31T05:19:01;15.20;99.90
11538;DHT22;50159;49.426;11.182;2023-07-31T05:21:27;15.30;99.90
11538;DHT22;50159;49.426;11.182;2023-07-31T05:23:54;15.30;99.90
11538;DHT22;50159;49.426;11.182;2023-07-31T05:26:21;15.30;99.90
11538;DHT22;50159;49.426;11.182;2023-07-31T05:28:48;15.30;99.90
11538;DHT22;50159;49.426;11.182;2023-07-31T05:31:15;15.40;99.90
11538;DHT22;50159;49.426;11.182;2023-07-31T05:33:42;15.40;99.90
11538;DHT22;50159;49.426;11.182;2023-07-31T05:36:09;15.50;99.90
11538;DHT22;50159;49.426;11.182;2023-07-31T05:38:36;15.50;99.90
11538;DHT22;50159;49.426;11.182;2023-07-31T05:41:03;15.50;99.90
11538;DHT22;50159;49.426;11.182;2023-07-31T05:43:29;15.60;99.90
11538;DHT22;50159;49.426;11.182;2023-07-31T05:45:56;15.60;99.90
11538;DHT22;50159;49.426;11.182;2023-07-31T05:48:23;15.70;99.90
11538;DHT22;50159;49.426;11.182;2023-07-31T05:50:50;15.70;99.90
11538;DHT22;50159;49.426;11.182;2023-07-31T05:53:17;15.80;99.90
11538;DHT22;50159;49.426;11.182;2023-07-31T05:55:43;15.80;99.90
11538;DHT22;50159;49.426;11.182;2023-07-31T05:58:10;15.80;99.90
11538;DHT22;50159;49.426;11.182;2023-07-31T06:00:37;15.90;99.90
11538;DHT22;50159;49.426;11.182;2023-07-31T06:03:04;15.90;99.90
11538;DHT22;50159;49.426;11.182;2023-07-31T06:05:31;15.90;99.90
11538;DHT22;50159;49.426;11.182;2023-07-31T06:07:58;15.90;99.90
11538;DHT22;50159;49.426;11.182;2023-07-31T06:10:25;16.00;99.90
11538;DHT22;50159;49.426;11.182;2023-07-31T06:12:52;16.00;99.90
11538;DHT22;50159;49.426;11.182;2023-07-31T06:15:20;16.10;99.90
11538;DHT22;50159;49.426;11.182;2023-07-31T06:17:47;16.10;99.90
11538;DHT22;50159;49.426;11.182;2023-07-31T06:20:14;16.20;99.90
11538;DHT22;50159;49.426;11.182;2023-07-31T06:22:41;16.20;99.90
11538;DHT22;50159;49.426;11.182;2023-07-31T06:25:08;16.20;99.90
11538;DHT22;50159;49.426;11.182;2023-07-31T06:27:39;16.30;99.90
11538;DHT22;50159;49.426;11.182;2023-07-31T06:30:06;16.40;99.90
11538;DHT22;50159;49.426;11.182;2023-07-31T06:32:33;16.50;99.90
11538;DHT22;50159;49.426;11.182;2023-07-31T06:35:00;16.60;99.90
11538;DHT22;50159;49.426;11.182;2023-07-31T06:37:27;16.60;99.90
11538;DHT22;50159;49.426;11.182;2023-07-31T06:39:54;16.70;99.90
11538;DHT22;50159;49.426;11.182;2023-07-31T06:42:21;16.70;99.90
11538;DHT22;50159;49.426;11.182;2023-07-31T06:44:47;16.80;99.90
11538;DHT22;50159;49.426;11.182;2023-07-31T06:47:14;16.90;99.90
11538;DHT22;50159;49.426;11.182;2023-07-31T06:49:41;17.00;99.90
11538;DHT22;50159;49.426;11.182;2023-07-31T06:52:08;17.20;99.90
11538;DHT22;50159;49.426;11.182;2023-07-31T06:54:36;17.30;99.90
11538;DHT22;50159;49.426;11.182;2023-07-31T06:57:03;17.30;99.90
11538;DHT22;50159;49.426;11.182;2023-07-31T06:59:30;17.40;99.90
11538;DHT22;50159;49.426;11.182;2023-07-31T07:01:57;17.40;99.90
11538;DHT22;50159;49.426;11.182;2023-07-31T07:04:24;17.60;99.90
11538;DHT22;50159;49.426;11.182;2023-07-31T07:06:51;17.60;99.90
11538;DHT22;50159;49.426;11.182;2023-07-31T07:09:17;17.70;99.90
11538;DHT22;50159;49.426;11.182;2023-07-31T07:11:44;17.80;99.90
11538;DHT22;50159;49.426;11.182;2023-07-31T07:14:11;17.90;99.10
11538;DHT22;50159;49.426;11.182;2023-07-31T07:16:38;17.90;98.20
11538;DHT22;50159;49.426;11.182;2023-07-31T07:19:08;18.00;98.30
11538;DHT22;50159;49.426;11.182;2023-07-31T07:21:35;18.10;98.00
11538;DHT22;50159;49.426;11.182;2023-07-31T07:24:01;18.20;98.20
11538;DHT22;50159;49.426;11.182;2023-07-31T07:26:28;18.20;97.90
11538;DHT22;50159;49.426;11.182;2023-07-31T07:28:55;18.30;96.70
11538;DHT22;50159;49.426;11.182;2023-07-31T07:31:24;18.30;96.40
11538;DHT22;50159;49.426;11.182;2023-07-31T07:33:51;18.30;95.90
11538;DHT22;50159;49.426;11.182;2023-07-31T07:36:18;18.30;95.60
11538;DHT22;50159;49.426;11.182;2023-07-31T07:38:45;18.40;95.90
11538;DHT22;50159;49.426;11.182;2023-07-31T07:41:12;18.40;95.80
11538;DHT22;50159;49.426;11.182;2023-07-31T07:43:39;18.40;95.40
11538;DHT22;50159;49.426;11.182;2023-07-31T07:46:06;18.50;95.70
11538;DHT22;50159;49.426;11.182;2023-07-31T07:48:33;18.50;95.00
11538;DHT22;50159;49.426;11.182;2023-07-31T07:51:00;18.60;95.40
11538;DHT22;50159;49.426;11.182;2023-07-31T07:53:26;18.60;95.40
11538;DHT22;50159;49.426;11.182;2023-07-31T07:55:53;18.70;95.70
11538;DHT22;50159;49.426;11.182;2023-07-31T07:58:20;18.70;95.50
11538;DHT22;50159;49.426;11.182;2023-07-31T08:00:53;18.80;95.80
11538;DHT22;50159;49.426;11.182;2023-07-31T08:03:20;18.90;95.20
11538;DHT22;50159;49.426;11.182;2023-07-31T08:05:47;19.00;95.10
11538;DHT22;50159;49.426;11.182;2023-07-31T08:08:17;19.00;94.30
11538;DHT22;50159;49.426;11.182;2023-07-31T08:10:44;19.00;94.40
11538;DHT22;50159;49.426;11.182;2023-07-31T08:13:12;19.10;93.90
11538;DHT22;50159;49.426;11.182;2023-07-31T08:15:42;19.20;93.30
11538;DHT22;50159;49.426;11.182;2023-07-31T08:18:12;19.30;92.30
11538;DHT22;50159;49.426;11.182;2023-07-31T08:20:39;19.30;92.10
11538;DHT22;50159;49.426;11.182;2023-07-31T08:23:06;19.40;92.00
11538;DHT22;50159;49.426;11.182;2023-07-31T08:25:35;19.50;92.20
11538;DHT22;50159;49.426;11.182;2023-07-31T08:28:03;19.60;91.80
11538;DHT22;50159;49.426;11.182;2023-07-31T08:30:31;19.70;90.60
11538;DHT22;50159;49.426;11.182;2023-07-31T08:32:58;19.90;91.10
11538;DHT22;50159;49.426;11.182;2023-07-31T08:35:25;19.90;90.50
11538;DHT22;50159;49.426;11.182;2023-07-31T08:37:54;20.00;89.90
11538;DHT22;50159;49.426;11.182;2023-07-31T08:40:21;20.10;90.10
11538;DHT22;50159;49.426;11.182;2023-07-31T08:42:50;20.30;86.20
11538;DHT22;50159;49.426;11.182;2023-07-31T08:45:20;20.50;86.10
11538;DHT22;50159;49.426;11.182;2023-07-31T08:47:49;20.80;86.60
11538;DHT22;50159;49.426;11.182;2023-07-31T08:50:18;21.10;86.70
11538;DHT22;50159;49.426;11.182;2023-07-31T08:52:48;21.20;82.70
11538;DHT22;50159;49.426;11.182;2023-07-31T08:55:16;21.20;80.20
11538;DHT22;50159;49.426;11.182;2023-07-31T08:57:44;21.20;80.30
11538;DHT22;50159;49.426;11.182;2023-07-31T09:00:12;21.20;78.80
11538;DHT22;50159;49.426;11.182;2023-07-31T09:02:57;21.20;78.40
11538;DHT22;50159;49.426;11.182;2023-07-31T09:05:30;21.10;78.90
11538;DHT22;50159;49.426;11.182;2023-07-31T09:07:58;21.10;80.80
11538;DHT22;50159;49.426;11.182;2023-07-31T09:10:25;21.10;81.80
11538;DHT22;50159;49.426;11.182;2023-07-31T09:12:52;21.20;79.20
11538;DHT22;50159;49.426;11.182;2023-07-31T09:15:19;21.40;80.50
11538;DHT22;50159;49.426;11.182;2023-07-31T09:18:03;21.50;78.60
11538;DHT22;50159;49.426;11.182;2023-07-31T09:20:32;21.70;79.60
11538;DHT22;50159;49.426;11.182;2023-07-31T09:23:11;21.90;78.80
11538;DHT22;50159;49.426;11.182;2023-07-31T09:25:40;22.00;74.70
11538;DHT22;50159;49.426;11.182;2023-07-31T09:28:11;22.10;74.60
11538;DHT22;50159;49.426;11.182;2023-07-31T09:30:50;22.20;74.80
11538;DHT22;50159;49.426;11.182;2023-07-31T09:33:18;22.20;74.60
11538;DHT22;50159;49.426;11.182;2023-07-31T09:35:47;22.30;75.20
11538;DHT22;50159;49.426;11.182;2023-07-31T09:38:17;22.20;74.00
11538;DHT22;50159;49.426;11.182;2023-07-31T09:40:46;22.40;72.70
11538;DHT22;50159;49.426;11.182;2023-07-31T09:43:19;22.70;74.50
11538;DHT22;50159;49.426;11.182;2023-07-31T09:45:47;22.90;72.70
11538;DHT22;50159;49.426;11.182;2023-07-31T09:48:16;23.10;70.90
11538;DHT22;50159;49.426;11.182;2023-07-31T09:50:46;23.20;70.00
11538;DHT22;50159;49.426;11.182;2023-07-31T09:53:15;23.10;67.10
11538;DHT22;50159;49.426;11.182;2023-07-31T09:55:43;22.90;68.90
11538;DHT22;50159;49.426;11.182;2023-07-31T09:58:12;22.70;66.10
11538;DHT22;50159;49.426;11.182;2023-07-31T10:00:39;22.50;68.80
11538;DHT22;50159;49.426;11.182;2023-07-31T10:03:11;22.30;69.20
11538;DHT22;50159;49.426;11.182;2023-07-31T10:05:40;22.00;69.70
11538;DHT22;50159;49.426;11.182;2023-07-31T10:08:13;21.80;71.40
11538;DHT22;50159;49.426;11.182;2023-07-31T10:10:43;21.70;73.70
11538;DHT22;50159;49.426;11.182;2023-07-31T10:13:12;21.70;74.90
11538;DHT22;50159;49.426;11.182;2023-07-31T10:15:41;21.70;73.20
11538;DHT22;50159;49.426;11.182;2023-07-31T10:18:10;21.60;72.90
11538;DHT22;50159;49.426;11.182;2023-07-31T10:20:38;21.60;73.60
11538;DHT22;50159;49.426;11.182;2023-07-31T10:23:06;21.60;72.80
11538;DHT22;50159;49.426;11.182;2023-07-31T10:25:34;21.70;72.30
11538;DHT22;50159;49.426;11.182;2023-07-31T10:28:02;21.80;72.40
11538;DHT22;50159;49.426;11.182;2023-07-31T10:30:30;21.80;73.30
11538;DHT22;50159;49.426;11.182;2023-07-31T10:33:00;21.80;73.40
11538;DHT22;50159;49.426;11.182;2023-07-31T10:35:29;21.70;72.50
11538;DHT22;50159;49.426;11.182;2023-07-31T10:37:55;21.70;72.80
11538;DHT22;50159;49.426;11.182;2023-07-31T10:40:36;21.80;74.70
11538;DHT22;50159;49.426;11.182;2023-07-31T10:43:05;21.90;73.30
11538;DHT22;50159;49.426;11.182;2023-07-31T10:45:42;21.90;71.90
11538;DHT22;50159;49.426;11.182;2023-07-31T10:48:16;21.90;72.60
11538;DHT22;50159;49.426;11.182;2023-07-31T10:50:48;21.90;73.30
11538;DHT22;50159;49.426;11.182;2023-07-31T10:53:30;22.20;73.30
11538;DHT22;50159;49.426;11.182;2023-07-31T10:56:00;22.40;71.90
11538;DHT22;50159;49.426;11.182;2023-07-31T10:58:32;22.50;71.80
11538;DHT22;50159;49.426;11.182;2023-07-31T11:01:01;22.50;69.60
11538;DHT22;50159;49.426;11.182;2023-07-31T11:06:10;22.30;68.30
11538;DHT22;50159;49.426;11.182;2023-07-31T11:08:48;22.30;69.90
11538;DHT22;50159;49.426;11.182;2023-07-31T11:11:18;22.30;69.30
11538;DHT22;50159;49.426;11.182;2023-07-31T11:13:51;22.30;69.90
11538;DHT22;50159;49.426;11.182;2023-07-31T11:16:21;22.30;69.80
11538;DHT22;50159;49.426;11.182;2023-07-31T11:18:50;22.30;69.00
11538;DHT22;50159;49.426;11.182;2023-07-31T11:21:21;22.30;70.00
11538;DHT22;50159;49.426;11.182;2023-07-31T11:23:51;22.30;68.30
11538;DHT22;50159;49.426;11.182;2023-07-31T11:26:20;22.30;69.00
11538;DHT22;50159;49.426;11.182;2023-07-31T11:28:47;22.30;69.50
11538;DHT22;50159;49.426;11.182;2023-07-31T11:31:16;22.10;68.80
11538;DHT22;50159;49.426;11.182;2023-07-31T11:33:44;22.00;69.30
11538;DHT22;50159;49.426;11.182;2023-07-31T11:36:19;22.00;71.40
11538;DHT22;50159;49.426;11.182;2023-07-31T11:38:46;22.00;71.20
11538;DHT22;50159;49.426;11.182;2023-07-31T11:41:15;21.90;71.10
11538;DHT22;50159;49.426;11.182;2023-07-31T11:43:44;21.80;71.30
11538;DHT22;50159;49.426;11.182;2023-07-31T11:46:13;21.60;70.90
11538;DHT22;50159;49.426;11.182;2023-07-31T11:48:41;21.50;72.00
11538;DHT22;50159;49.426;11.182;2023-07-31T11:51:10;21.50;74.00
11538;DHT22;50159;49.426;11.182;2023-07-31T11:53:53;21.50;74.70
11538;DHT22;50159;49.426;11.182;2023-07-31T11:56:26;21.40;73.90
11538;DHT22;50159;49.426;11.182;2023-07-31T11:58:58;21.50;74.00
11538;DHT22;50159;49.426;11.182;2023-07-31T12:01:28;21.50;73.90
11538;DHT22;50159;49.426;11.182;2023-07-31T12:03:56;21.60;74.40
11538;DHT22;50159;49.426;11.182;2023-07-31T12:06:36;21.60;75.50
11538;DHT22;50159;49.426;11.182;2023-07-31T12:09:05;21.60;74.40
11538;DHT22;50159;49.426;11.182;2023-07-31T12:11:43;21.60;71.60
11538;DHT22;50159;49.426;11.182;2023-07-31T12:14:21;21.50;71.70
11538;DHT22;50159;49.426;11.182;2023-07-31T12:16:57;21.40;71.90
11538;DHT22;50159;49.426;11.182;2023-07-31T12:19:26;21.40;73.30
11538;DHT22;50159;49.426;11.182;2023-07-31T12:21:57;21.40;73.60
11538;DHT22;50159;49.426;11.182;2023-07-31T12:24:28;21.30;73.60
11538;DHT22;50159;49.426;11.182;2023-07-31T12:26:55;21.40;74.90
11538;DHT22;50159;49.426;11.182;2023-07-31T12:29:34;21.40;75.40
11538;DHT22;50159;49.426;11.182;2023-07-31T12:32:23;21.50;75.10
11538;DHT22;50159;49.426;11.182;2023-07-31T12:34:51;21.60;73.40
11538;DHT22;50159;49.426;11.182;2023-07-31T12:37:18;21.70;71.30
11538;DHT22;50159;49.426;11.182;2023-07-31T12:39:46;21.80;70.80
11538;DHT22;50159;49.426;11.182;2023-07-31T12:42:13;22.00;70.20
11538;DHT22;50159;49.426;11.182;2023-07-31T12:44:40;22.20;70.60
11538;DHT22;50159;49.426;11.182;2023-07-31T12:47:07;22.40;69.30
11538;DHT22;50159;49.426;11.182;2023-07-31T12:49:33;22.60;68.10
11538;DHT22;50159;49.426;11.182;2023-07-31T12:52:00;22.90;68.70
11538;DHT22;50159;49.426;11.182;2023-07-31T12:54:27;23.20;67.10
11538;DHT22;50159;49.426;11.182;2023-07-31T12:56:54;23.30;66.70
11538;DHT22;50159;49.426;11.182;2023-07-31T12:59:24;23.30;65.00
11538;DHT22;50159;49.426;11.182;2023-07-31T13:01:51;23.30;64.30
11538;DHT22;50159;49.426;11.182;2023-07-31T13:04:18;23.20;65.00
11538;DHT22;50159;49.426;11.182;2023-07-31T13:06:45;23.20;65.20
11538;DHT22;50159;49.426;11.182;2023-07-31T13:09:12;23.20;62.70
11538;DHT22;50159;49.426;11.182;2023-07-31T13:11:39;23.20;62.90
11538;DHT22;50159;49.426;11.182;2023-07-31T13:14:05;23.10;63.40
11538;DHT22;50159;49.426;11.182;2023-07-31T13:16:32;23.10;64.00
11538;DHT22;50159;49.426;11.182;2023-07-31T13:18:59;23.10;61.80
11538;DHT22;50159;49.426;11.182;2023-07-31T13:21:26;22.90;62.10
11538;DHT22;50159;49.426;11.182;2023-07-31T13:23:53;22.70;63.60
11538;DHT22;50159;49.426;11.182;2023-07-31T13:26:20;22.80;64.60
11538;DHT22;50159;49.426;11.182;2023-07-31T13:28:46;22.90;66.10
11538;DHT22;50159;49.426;11.182;2023-07-31T13:31:13;23.10;66.00
11538;DHT22;50159;49.426;11.182;2023-07-31T13:33:40;23.20;62.80
11538;DHT22;50159;49.426;11.182;2023-07-31T13:36:10;23.40;63.40
11538;DHT22;50159;49.426;11.182;2023-07-31T13:38:37;23.80;63.10
11538;DHT22;50159;49.426;11.182;2023-07-31T13:41:04;24.10;61.60
11538;DHT22;50159;49.426;11.182;2023-07-31T13:43:32;24.30;59.50
11538;DHT22;50159;49.426;11.182;2023-07-31T13:45:58;24.40;59.30
11538;DHT22;50159;49.426;11.182;2023-07-31T13:48:36;24.40;59.50
11538;DHT22;50159;49.426;11.182;2023-07-31T13:51:03;24.30;59.50
11538;DHT22;50159;49.426;11.182;2023-07-31T13:53:31;24.20;59.10
11538;DHT22;50159;49.426;11.182;2023-07-31T13:55:58;24.00;59.10
11538;DHT22;50159;49.426;11.182;2023-07-31T13:58:24;24.10;59.20
11538;DHT22;50159;49.426;11.182;2023-07-31T14:00:51;24.20;59.60
11538;DHT22;50159;49.426;11.182;2023-07-31T14:03:18;24.30;59.10
11538;DHT22;50159;49.426;11.182;2023-07-31T14:05:45;24.30;59.20
11538;DHT22;50159;49.426;11.182;2023-07-31T14:08:12;24.30;60.20
11538;DHT22;50159;49.426;11.182;2023-07-31T14:10:39;24.30;60.00
11538;DHT22;50159;49.426;11.182;2023-07-31T14:13:05;24.20;59.70
11538;DHT22;50159;49.426;11.182;2023-07-31T14:15:32;24.10;60.40
11538;DHT22;50159;49.426;11.182;2023-07-31T14:18:02;24.10;60.80
11538;DHT22;50159;49.426;11.182;2023-07-31T14:20:30;24.10;60.20
11538;DHT22;50159;49.426;11.182;2023-07-31T14:22:57;24.00;59.70
11538;DHT22;50159;49.426;11.182;2023-07-31T14:25:24;23.90;60.20
11538;DHT22;50159;49.426;11.182;2023-07-31T14:27:51;23.80;60.60
11538;DHT22;50159;49.426;11.182;2023-07-31T14:30:17;23.70;60.70
11538;DHT22;50159;49.426;11.182;2023-07-31T14:32:44;23.60;61.20
11538;DHT22;50159;49.426;11.182;2023-07-31T14:35:11;23.40;61.60
11538;DHT22;50159;49.426;11.182;2023-07-31T14:37:40;23.30;61.80
11538;DHT22;50159;49.426;11.182;2023-07-31T14:40:09;23.10;61.40
11538;DHT22;50159;49.426;11.182;2023-07-31T14:42:39;23.00;62.30
11538;DHT22;50159;49.426;11.182;2023-07-31T14:45:08;22.90;61.50
11538;DHT22;50159;49.426;11.182;2023-07-31T14:47:36;22.70;61.40
11538;DHT22;50159;49.426;11.182;2023-07-31T14:50:03;22.70;62.20
11538;DHT22;50159;49.426;11.182;2023-07-31T14:52:31;22.60;63.00
11538;DHT22;50159;49.426;11.182;2023-07-31T14:54:58;22.60;63.50
11538;DHT22;50159;49.426;11.182;2023-07-31T14:57:25;22.70;61.20
11538;DHT22;50159;49.426;11.182;2023-07-31T14:59:53;22.60;62.30
11538;DHT22;50159;49.426;11.182;2023-07-31T15:02:20;22.60;62.80
11538;DHT22;50159;49.426;11.182;2023-07-31T15:04:47;22.50;62.00
11538;DHT22;50159;49.426;11.182;2023-07-31T15:07:14;22.40;62.10
11538;DHT22;50159;49.426;11.182;2023-07-31T15:09:41;22.30;62.50
11538;DHT22;50159;49.426;11.182;2023-07-31T15:12:08;22.30;62.50
11538;DHT22;50159;49.426;11.182;2023-07-31T15:14:35;22.20;62.50
11538;DHT22;50159;49.426;11.182;2023-07-31T15:17:02;22.10;62.90
11538;DHT22;50159;49.426;11.182;2023-07-31T15:19:29;22.10;64.40
11538;DHT22;50159;49.426;11.182;2023-07-31T15:21:56;22.00;64.60
11538;DHT22;50159;49.426;11.182;2023-07-31T15:24:23;22.00;64.30
11538;DHT22;50159;49.426;11.182;2023-07-31T15:26:50;21.90;64.00
11538;DHT22;50159;49.426;11.182;2023-07-31T15:29:16;21.80;64.30